createdAt,value
2019-04-10T00:00:52.985Z,2.10
2019-04-10T00:03:29.821Z,2.08
2019-04-10T00:05:54.182Z,2.35
2019-04-10T00:08:24.240Z,2.65
2019-04-10T00:10:56.329Z,1.82
2019-04-10T00:13:26.765Z,3.08
2019-04-10T00:15:55.245Z,2.60
2019-04-10T00:18:24.160Z,2.27
2019-04-10T00:20:57.002Z,2.10
2019-04-10T00:23:28.233Z,2.37
2019-04-10T00:26:03.618Z,2.72
2019-04-10T00:28:32.030Z,2.12
2019-04-10T00:31:05.502Z,2.52
2019-04-10T00:33:37.937Z,3.35
2019-04-10T00:36:06.324Z,2.05
2019-04-10T00:38:38.763Z,2.67
2019-04-10T00:41:08.024Z,2.75
2019-04-10T00:43:37.140Z,2.35
2019-04-10T00:46:06.176Z,2.92
2019-04-10T00:48:38.332Z,2.60
2019-04-10T00:51:09.682Z,2.40
2019-04-10T00:53:38.235Z,3.00
2019-04-10T00:56:08.377Z,2.50
2019-04-10T00:58:39.624Z,2.10
2019-04-10T01:01:08.049Z,1.95
2019-04-10T01:03:42.797Z,2.10
2019-04-10T01:06:15.938Z,2.75
2019-04-10T01:08:44.725Z,2.42
2019-04-10T01:11:17.575Z,2.10
2019-04-10T01:13:45.961Z,2.85
2019-04-10T01:16:18.002Z,2.22
2019-04-10T01:18:47.724Z,2.00
2019-04-10T01:21:16.294Z,2.10
2019-04-10T01:23:49.733Z,2.00
2019-04-10T01:26:19.112Z,2.75
2019-04-10T01:28:47.569Z,2.70
2019-04-10T01:31:24.184Z,2.17
2019-04-10T01:34:00.976Z,2.47
2019-04-10T01:36:29.611Z,2.30
2019-04-10T01:38:57.996Z,2.47
2019-04-10T01:41:26.378Z,2.80
2019-04-10T01:43:55.226Z,2.50
2019-04-10T01:46:24.416Z,2.08
2019-04-10T01:49:01.609Z,2.15
2019-04-10T01:51:43.838Z,2.72
2019-04-10T01:54:13.065Z,2.30
2019-04-10T01:56:52.124Z,2.90
2019-04-10T01:59:23.388Z,2.83
2019-04-10T02:01:53.633Z,2.37
2019-04-10T02:04:27.627Z,2.87
2019-04-10T02:06:56.050Z,2.25
2019-04-10T02:09:29.686Z,2.10
2019-04-10T02:11:58.539Z,2.70
2019-04-10T02:14:27.999Z,2.30
2019-04-10T02:16:57.023Z,2.20
2019-04-10T02:19:26.123Z,2.58
2019-04-10T02:21:54.620Z,2.30
2019-04-10T02:24:27.322Z,2.22
2019-04-10T02:27:03.970Z,2.20
2019-04-10T02:29:33.523Z,2.80
2019-04-10T02:32:02.226Z,2.15
2019-04-10T02:34:32.632Z,1.92
2019-04-10T02:37:04.276Z,2.50
2019-04-10T02:39:40.145Z,2.20
2019-04-10T02:42:10.860Z,2.00
2019-04-10T02:44:39.293Z,2.33
2019-04-10T02:47:08.152Z,2.47
2019-04-10T02:49:36.656Z,2.60
2019-04-10T02:52:06.591Z,2.47
2019-04-10T02:54:35.791Z,3.17
2019-04-10T02:57:05.517Z,2.70
2019-04-10T02:59:39.638Z,2.67
2019-04-10T03:02:13.900Z,2.47
2019-04-10T03:04:45.936Z,3.25
2019-04-10T03:07:15.752Z,2.58
2019-04-10T03:10:00.495Z,2.87
2019-04-10T03:12:23.836Z,2.60
2019-04-10T03:14:54.402Z,2.87
2019-04-10T03:17:33.265Z,3.00
2019-04-10T03:20:05.933Z,2.40
2019-04-10T03:22:41.544Z,2.52
2019-04-10T03:25:13.578Z,2.90
2019-04-10T03:27:46.798Z,2.25
2019-04-10T03:30:18.376Z,2.52
2019-04-10T03:33:02.998Z,3.02
2019-04-10T03:35:36.519Z,3.17
2019-04-10T03:38:09.831Z,2.70
2019-04-10T03:40:38.333Z,3.42
2019-04-10T03:43:16.006Z,2.85
2019-04-10T03:45:44.503Z,3.05
2019-04-10T03:48:15.970Z,3.17
2019-04-10T03:50:44.391Z,2.60
2019-04-10T03:53:13.912Z,3.37
2019-04-10T03:55:43.277Z,2.77
2019-04-10T03:58:11.796Z,2.58
2019-04-10T04:00:48.756Z,2.77
2019-04-10T04:03:20.429Z,2.90
2019-04-10T04:05:49.084Z,2.47
2019-04-10T04:08:26.211Z,2.83
2019-04-10T04:11:09.196Z,3.00
2019-04-10T04:13:42.129Z,2.58
2019-04-10T04:16:15.025Z,3.00
2019-04-10T04:18:43.570Z,2.90
2019-04-10T04:21:11.916Z,2.80
2019-04-10T04:23:40.298Z,2.83
2019-04-10T04:26:08.700Z,2.65
2019-04-10T04:28:37.076Z,3.00
2019-04-10T04:31:05.464Z,2.90
2019-04-10T04:33:34.068Z,2.70
2019-04-10T04:36:02.664Z,3.37
2019-04-10T04:38:32.223Z,3.10
2019-04-10T04:41:00.710Z,3.25
2019-04-10T04:43:29.093Z,2.77
2019-04-10T04:45:57.494Z,3.15
2019-04-10T04:48:26.647Z,3.52
2019-04-10T04:50:55.043Z,2.67
2019-04-10T04:53:30.480Z,3.35
2019-04-10T04:55:59.637Z,3.65
2019-04-10T04:58:30.560Z,3.27
2019-04-10T05:01:00.186Z,2.90
2019-04-10T05:03:31.038Z,2.42
2019-04-10T05:06:00.367Z,2.67
2019-04-10T05:08:28.799Z,3.25
2019-04-10T05:11:00.165Z,2.70
2019-04-10T05:13:28.667Z,3.10
2019-04-10T05:15:57.570Z,2.67
2019-04-10T05:18:26.035Z,3.47
2019-04-10T05:20:54.738Z,3.42
2019-04-10T05:23:24.380Z,3.02
2019-04-10T05:25:56.136Z,3.30
2019-04-10T05:28:24.631Z,3.20
2019-04-10T05:30:53.041Z,3.08
2019-04-10T05:33:22.498Z,3.58
2019-04-10T05:35:51.026Z,2.92
2019-04-10T05:38:19.423Z,2.62
2019-04-10T05:40:48.521Z,3.10
2019-04-10T05:43:18.061Z,3.12
2019-04-10T05:45:46.545Z,3.15
2019-04-10T05:48:15.324Z,3.08
2019-04-10T05:50:52.980Z,3.02
2019-04-10T05:53:13.895Z,3.22
2019-04-10T05:55:42.266Z,3.45
2019-04-10T05:58:10.665Z,2.87
2019-04-10T06:00:39.038Z,3.65
2019-04-10T06:03:08.079Z,3.40
2019-04-10T06:05:36.590Z,3.08
2019-04-10T06:08:05.735Z,4.45
2019-04-10T06:10:34.339Z,2.50
2019-04-10T06:13:02.744Z,3.20
2019-04-10T06:15:31.118Z,2.58
2019-04-10T06:17:59.684Z,2.80
2019-04-10T06:20:29.182Z,2.37
2019-04-10T06:22:58.816Z,2.17
2019-04-10T06:25:28.777Z,2.40
2019-04-10T06:27:58.926Z,2.02
2019-04-10T06:30:27.985Z,2.50
2019-04-10T06:32:56.501Z,2.42
2019-04-10T06:35:26.049Z,2.73
2019-04-10T06:37:56.923Z,2.37
2019-04-10T06:40:27.202Z,2.52
2019-04-10T06:42:57.634Z,2.25
2019-04-10T06:45:28.076Z,2.58
2019-04-10T06:48:25.792Z,2.47
2019-04-10T06:50:50.943Z,2.05
2019-04-10T06:53:20.561Z,2.20
2019-04-10T06:55:48.978Z,2.23
2019-04-10T06:58:17.934Z,2.08
2019-04-10T07:00:49.684Z,2.10
2019-04-10T07:03:16.959Z,2.70
2019-04-10T07:06:00.520Z,2.25
2019-04-10T07:08:19.066Z,2.52
2019-04-10T07:10:54.189Z,2.58
2019-04-10T07:13:15.773Z,2.58
2019-04-10T07:15:45.458Z,2.37
2019-04-10T07:18:17.305Z,2.40
2019-04-10T07:20:44.389Z,2.10
2019-04-10T07:23:14.556Z,2.55
2019-04-10T07:25:45.457Z,2.73
2019-04-10T07:28:14.159Z,2.55
2019-04-10T07:30:43.546Z,2.87
2019-04-10T07:33:14.833Z,2.08
2019-04-10T07:35:42.856Z,2.40
2019-04-10T07:38:11.826Z,2.22
2019-04-10T07:40:41.324Z,2.58
2019-04-10T07:43:09.717Z,2.02
2019-04-10T07:45:38.098Z,2.08
2019-04-10T07:48:06.685Z,2.40
2019-04-10T07:50:35.195Z,2.27
2019-04-10T07:53:03.589Z,2.83
2019-04-10T07:55:33.043Z,2.50
2019-04-10T07:58:02.693Z,2.75
2019-04-10T08:00:34.463Z,2.00
2019-04-10T08:03:04.129Z,2.62
2019-04-10T08:05:35.474Z,2.22
2019-04-10T08:08:05.035Z,2.98
2019-04-10T08:10:37.403Z,1.70
2019-04-10T08:13:08.608Z,2.87
2019-04-10T08:15:37.796Z,2.37
2019-04-10T08:18:06.609Z,2.30
2019-04-10T08:20:38.157Z,2.50
2019-04-10T08:23:12.338Z,2.22
2019-04-10T08:25:40.969Z,2.72
2019-04-10T08:28:13.021Z,2.85
2019-04-10T08:33:10.411Z,2.58
2019-04-10T08:35:39.794Z,2.12
2019-04-10T08:38:13.177Z,2.20
2019-04-10T08:43:14.208Z,2.30
2019-04-10T08:45:48.102Z,2.45
2019-04-10T08:48:18.268Z,2.37
2019-04-10T08:50:46.666Z,2.30
2019-04-10T08:53:15.246Z,2.47
2019-04-10T08:55:43.619Z,2.50
2019-04-10T08:58:12.015Z,3.12
2019-04-10T09:00:40.730Z,3.45
2019-04-10T09:03:17.022Z,2.98
2019-04-10T09:05:44.965Z,2.65
2019-04-10T09:08:17.306Z,2.30
2019-04-10T09:10:46.833Z,2.60
2019-04-10T09:13:16.460Z,2.37
2019-04-10T09:15:49.951Z,2.90
2019-04-10T09:18:18.461Z,2.30
2019-04-10T09:21:02.769Z,2.45
2019-04-10T09:24:04.827Z,1.95
2019-04-10T09:26:03.892Z,2.75
2019-04-10T09:28:36.343Z,1.80
2019-04-10T09:31:05.820Z,2.10
2019-04-10T09:33:38.957Z,2.10
2019-04-10T09:36:07.490Z,1.92
2019-04-10T09:38:36.939Z,2.17
2019-04-10T09:41:11.862Z,2.55
2019-04-10T09:43:54.037Z,2.70
2019-04-10T09:46:21.661Z,2.58
2019-04-10T09:48:50.057Z,2.00
2019-04-10T09:51:19.612Z,1.80
2019-04-10T09:53:51.111Z,1.98
2019-04-10T09:56:21.399Z,2.07
2019-04-10T09:58:49.796Z,2.00
2019-04-10T10:01:18.474Z,2.03
2019-04-10T10:03:46.850Z,2.08
2019-04-10T10:06:24.289Z,2.35
2019-04-10T10:08:56.447Z,2.72
2019-04-10T10:11:24.957Z,2.33
2019-04-10T10:14:01.909Z,2.40
2019-04-10T10:16:34.509Z,2.15
2019-04-10T10:19:02.927Z,2.15
2019-04-10T10:21:40.757Z,2.40
2019-04-10T10:24:09.193Z,2.27
2019-04-10T10:26:37.564Z,2.47
2019-04-10T10:29:35.613Z,1.95
2019-04-10T10:32:05.074Z,2.12
2019-04-10T10:34:36.727Z,1.80
2019-04-10T10:39:43.738Z,2.33
2019-04-10T10:42:12.200Z,2.62
2019-04-10T10:44:43.160Z,2.65
2019-04-10T10:47:11.810Z,2.12
2019-04-10T10:49:40.324Z,2.05
2019-04-10T10:52:09.041Z,2.10
2019-04-10T10:54:37.479Z,2.33
2019-04-10T10:57:06.950Z,2.52
2019-04-10T10:59:39.820Z,2.20
2019-04-10T11:02:08.589Z,2.20
2019-04-10T11:04:37.843Z,1.82
2019-04-10T11:07:06.920Z,2.30
2019-04-10T11:09:35.986Z,2.33
2019-04-10T11:12:12.186Z,2.17
2019-04-10T11:14:40.597Z,2.10
2019-04-10T11:17:13.431Z,2.37
2019-04-10T11:19:47.312Z,2.05
2019-04-10T11:24:51.258Z,2.58
2019-04-10T11:27:19.650Z,2.87
2019-04-10T11:29:48.043Z,2.75
2019-04-10T11:32:17.533Z,2.35
2019-04-10T11:34:49.314Z,2.60
2019-04-10T11:37:27.096Z,2.03
2019-04-10T11:39:54.624Z,2.40
2019-04-10T11:42:24.262Z,2.33
2019-04-10T11:44:54.598Z,2.42
2019-04-10T11:47:32.519Z,2.30
2019-04-10T11:49:59.365Z,2.25
2019-04-10T11:52:38.102Z,2.50
2019-04-10T11:55:06.765Z,2.80
2019-04-10T11:57:30.819Z,2.35
2019-04-10T12:02:34.427Z,2.55
2019-04-10T12:05:09.560Z,2.73
2019-04-10T12:12:43.949Z,2.55
2019-04-10T12:15:12.637Z,2.50
2019-04-10T12:17:46.381Z,2.27
2019-04-10T12:20:40.803Z,2.47
2019-04-10T12:23:12.757Z,2.37
2019-04-10T12:25:41.195Z,2.67
2019-04-10T12:28:09.655Z,2.70
2019-04-10T12:30:38.089Z,2.20
2019-04-10T12:33:11.465Z,1.98
2019-04-10T12:35:40.382Z,1.92
2019-04-10T12:38:10.741Z,2.20
2019-04-10T12:40:40.420Z,2.80
2019-04-10T12:43:09.042Z,2.37
2019-04-10T12:45:38.148Z,2.40
2019-04-10T12:48:06.607Z,1.90
2019-04-10T12:50:35.018Z,2.47
2019-04-10T12:53:07.415Z,2.67
2019-04-10T12:55:36.715Z,2.40
2019-04-10T12:58:10.825Z,2.35
2019-04-10T13:00:41.029Z,2.85
2019-04-10T13:03:14.602Z,1.85
2019-04-10T13:05:43.092Z,2.77
2019-04-10T13:08:20.422Z,2.62
2019-04-10T13:10:43.400Z,2.50
2019-04-10T13:13:11.949Z,2.52
2019-04-10T13:15:41.424Z,2.70
2019-04-10T13:18:12.452Z,2.30
2019-04-10T13:20:41.967Z,2.22
2019-04-10T13:23:10.863Z,2.27
2019-04-10T13:25:39.289Z,2.50
2019-04-10T13:28:11.581Z,2.58
2019-04-10T13:30:47.932Z,3.00
2019-04-10T13:33:10.495Z,2.20
2019-04-10T13:35:39.799Z,1.90
2019-04-10T13:38:08.844Z,2.47
2019-04-10T13:40:37.536Z,2.47
2019-04-10T13:43:07.050Z,2.15
2019-04-10T13:45:37.413Z,1.90
2019-04-10T13:48:06.172Z,2.30
2019-04-10T13:50:34.846Z,2.17
2019-04-10T13:53:03.885Z,2.62
2019-04-10T13:55:32.702Z,2.33
2019-04-10T13:58:01.398Z,2.37
2019-04-10T14:00:31.478Z,2.37
2019-04-10T14:02:59.865Z,2.27
2019-04-10T14:05:32.518Z,2.10
2019-04-10T14:10:29.438Z,2.35
2019-04-10T14:13:08.534Z,2.20
2019-04-10T14:15:44.256Z,2.47
2019-04-10T14:18:12.755Z,2.27
2019-04-10T14:20:41.616Z,2.40
2019-04-10T14:23:22.266Z,2.52
2019-04-10T14:25:58.285Z,1.98
2019-04-10T14:28:29.154Z,3.50
2019-04-10T14:31:02.035Z,1.95
2019-04-10T14:33:30.583Z,2.15
2019-04-10T14:35:59.991Z,2.00
2019-04-10T14:38:28.689Z,1.87
2019-04-10T14:41:05.329Z,1.80
2019-04-10T14:43:33.810Z,2.42
2019-04-10T14:46:02.662Z,2.65
2019-04-10T14:48:32.288Z,1.92
2019-04-10T14:51:00.797Z,2.20
2019-04-10T14:53:29.125Z,1.85
2019-04-10T14:56:04.217Z,1.67
2019-04-10T14:58:33.953Z,1.80
2019-04-10T15:01:06.840Z,2.03
2019-04-10T15:03:33.039Z,1.85
2019-04-10T15:06:02.569Z,1.72
2019-04-10T15:08:35.637Z,2.08
2019-04-10T15:11:06.777Z,1.95
2019-04-10T15:13:38.106Z,1.60
2019-04-10T15:16:10.880Z,1.55
2019-04-10T15:18:39.248Z,1.92
2019-04-10T15:21:07.707Z,1.50
2019-04-10T15:23:36.093Z,1.65
2019-04-10T15:26:05.991Z,1.72
2019-04-10T15:28:34.438Z,1.55
2019-04-10T15:31:03.422Z,1.33
2019-04-10T15:33:32.780Z,1.27
2019-04-10T15:36:02.236Z,1.40
2019-04-10T15:38:30.632Z,1.35
2019-04-10T15:41:01.431Z,1.50
2019-04-10T15:43:29.827Z,1.80
2019-04-10T15:46:00.695Z,1.30
2019-04-10T15:48:29.477Z,2.02
2019-04-10T15:50:58.081Z,1.70
2019-04-10T15:53:29.298Z,1.72
2019-04-10T15:55:57.853Z,1.90
2019-04-10T15:58:26.239Z,2.30
2019-04-10T16:00:55.015Z,2.20
2019-04-10T16:03:23.390Z,2.02
2019-04-10T16:05:58.781Z,1.95
2019-04-10T16:08:28.127Z,2.15
2019-04-10T16:11:07.835Z,1.72
2019-04-10T16:13:38.773Z,2.33
2019-04-10T16:16:25.414Z,1.92
2019-04-10T16:19:20.917Z,2.15
2019-04-10T16:21:50.107Z,1.98
2019-04-10T16:24:20.595Z,2.37
2019-04-10T16:26:49.613Z,1.82
2019-04-10T16:29:18.209Z,2.02
2019-04-10T16:31:50.264Z,2.90
2019-04-10T16:34:19.777Z,2.22
2019-04-10T16:36:48.268Z,2.40
2019-04-10T16:39:18.302Z,2.67
2019-04-10T16:41:46.687Z,2.62
2019-04-10T16:44:15.116Z,2.55
2019-04-10T16:46:45.083Z,2.67
2019-04-10T16:49:14.827Z,2.42
2019-04-10T16:51:44.758Z,2.35
2019-04-10T16:54:13.257Z,2.72
2019-04-10T16:56:42.572Z,1.82
2019-04-10T16:59:11.979Z,2.40
2019-04-10T17:01:40.654Z,2.15
2019-04-10T17:04:09.138Z,2.67
2019-04-10T17:06:42.033Z,2.70
2019-04-10T17:09:19.008Z,2.98
2019-04-10T17:11:47.880Z,3.17
2019-04-10T17:14:20.395Z,2.85
2019-04-10T17:16:50.048Z,3.30
2019-04-10T17:19:23.713Z,3.47
2019-04-10T17:21:54.885Z,3.22
2019-04-10T17:24:23.263Z,3.70
2019-04-10T17:26:55.149Z,3.52
2019-04-10T17:29:23.640Z,3.72
2019-04-10T17:31:52.988Z,3.37
2019-04-10T17:34:22.820Z,3.42
2019-04-10T17:36:51.603Z,3.37
2019-04-10T17:39:20.643Z,3.42
2019-04-10T17:41:50.236Z,3.23
2019-04-10T17:44:18.784Z,3.40
2019-04-10T17:46:47.146Z,3.58
2019-04-10T17:49:19.283Z,3.37
2019-04-10T17:51:52.382Z,3.33
2019-04-10T17:54:25.095Z,2.90
2019-04-10T17:56:57.454Z,3.70
2019-04-10T17:59:26.718Z,3.35
2019-04-10T18:02:01.249Z,3.52
2019-04-10T18:04:29.810Z,4.15
2019-04-10T18:07:03.915Z,3.58
2019-04-10T18:09:34.641Z,4.05
2019-04-10T18:12:07.995Z,4.42
2019-04-10T18:14:44.485Z,4.47
2019-04-10T18:17:22.740Z,4.30
2019-04-10T18:19:52.510Z,4.15
2019-04-10T18:22:30.873Z,4.60
2019-04-10T18:25:13.781Z,5.03
2019-04-10T18:27:42.811Z,5.10
2019-04-10T18:30:16.161Z,4.50
2019-04-10T18:32:48.377Z,4.25
2019-04-10T18:35:16.761Z,4.85
2019-04-10T18:37:45.157Z,5.05
2019-04-10T18:40:32.467Z,4.60
2019-04-10T18:42:56.145Z,4.85
2019-04-10T18:45:28.104Z,4.55
2019-04-10T18:48:00.609Z,4.58
2019-04-10T18:50:29.047Z,4.67
2019-04-10T18:52:58.104Z,4.70
2019-04-10T18:55:28.400Z,4.53
2019-04-10T18:58:01.151Z,4.58
2019-04-10T19:00:46.280Z,5.28
2019-04-10T19:03:47.976Z,4.40
2019-04-10T19:06:12.520Z,4.53
2019-04-10T19:08:44.042Z,5.05
2019-04-10T19:11:21.264Z,5.70
2019-04-10T19:13:42.527Z,5.37
2019-04-10T19:16:12.989Z,5.53
2019-04-10T19:18:47.894Z,5.10
2019-04-10T19:21:17.919Z,4.72
2019-04-10T19:23:49.652Z,5.15
2019-04-10T19:26:20.982Z,5.12
2019-04-10T19:29:01.120Z,5.60
2019-04-10T19:31:29.884Z,5.83
2019-04-10T19:33:59.472Z,5.47
2019-04-10T19:36:30.310Z,5.58
2019-04-10T19:38:59.912Z,6.50
2019-04-10T19:41:35.577Z,6.53
2019-04-10T19:43:58.937Z,6.03
2019-04-10T19:46:31.414Z,5.50
2019-04-10T19:51:30.344Z,5.47
2019-04-10T19:54:00.017Z,5.72
2019-04-10T19:56:30.726Z,6.70
2019-04-10T19:58:59.130Z,5.47
2019-04-10T20:01:31.354Z,5.55
2019-04-10T20:04:02.065Z,5.90
2019-04-10T20:06:32.180Z,5.72
2019-04-10T20:09:00.623Z,5.85
2019-04-10T20:11:37.819Z,5.70
2019-04-10T20:14:01.092Z,5.58
2019-04-10T20:16:29.247Z,5.40
2019-04-10T20:18:59.605Z,5.70
2019-04-10T20:21:28.065Z,5.30
2019-04-10T20:23:56.477Z,6.12
2019-04-10T20:26:25.250Z,5.83
2019-04-10T20:28:56.062Z,6.30
2019-04-10T20:31:28.914Z,6.15
2019-04-10T20:34:01.096Z,5.97
2019-04-10T20:36:29.499Z,5.97
2019-04-10T20:38:59.039Z,6.08
2019-04-10T20:41:28.668Z,5.70
2019-04-10T20:43:57.419Z,6.12
2019-04-10T20:46:26.364Z,6.40
2019-04-10T20:48:55.073Z,5.83
2019-04-10T20:51:24.982Z,6.42
2019-04-10T20:53:53.579Z,6.15
2019-04-10T20:56:41.045Z,5.67
2019-04-10T20:59:10.405Z,5.87
2019-04-10T21:01:39.284Z,6.28
2019-04-10T21:04:11.336Z,6.12
2019-04-10T21:06:43.676Z,6.83
2019-04-10T21:09:12.106Z,6.20
2019-04-10T21:11:40.494Z,6.15
2019-04-10T21:14:09.363Z,5.55
2019-04-10T21:16:37.891Z,6.10
2019-04-10T21:19:09.442Z,6.15
2019-04-10T21:21:39.023Z,6.27
2019-04-10T21:24:07.496Z,6.60
2019-04-10T21:26:36.720Z,7.08
2019-04-10T21:29:06.872Z,6.33
2019-04-10T21:31:42.738Z,6.05
2019-04-10T21:34:19.625Z,7.17
2019-04-10T21:36:48.966Z,6.95
2019-04-10T21:39:22.620Z,7.08
2019-04-10T21:41:51.018Z,6.33
2019-04-10T21:44:26.634Z,6.72
2019-04-10T21:46:55.222Z,7.08
2019-04-10T21:49:24.031Z,7.10
2019-04-10T21:51:53.629Z,6.60
2019-04-10T21:54:23.144Z,7.20
2019-04-10T21:56:51.600Z,7.77
2019-04-10T21:59:24.843Z,7.92
2019-04-10T22:01:56.964Z,7.83
2019-04-10T22:04:27.381Z,7.60
2019-04-10T22:06:57.398Z,7.28
2019-04-10T22:09:43.794Z,6.33
2019-04-10T22:12:25.925Z,7.53
2019-04-10T22:14:48.880Z,8.03
2019-04-10T22:17:17.352Z,7.97
2019-04-10T22:19:47.564Z,7.15
2019-04-10T22:22:15.949Z,7.90
2019-04-10T22:24:46.312Z,7.08
2019-04-10T22:27:14.876Z,7.33
2019-04-10T22:29:43.458Z,7.87
2019-04-10T22:32:14.043Z,7.33
2019-04-10T22:34:42.507Z,7.87
2019-04-10T22:37:12.051Z,8.00
2019-04-10T22:39:41.731Z,7.80
2019-04-10T22:42:13.291Z,7.20
2019-04-10T22:44:46.479Z,7.95
2019-04-10T22:47:14.742Z,8.00
2019-04-10T22:49:43.320Z,7.80
2019-04-10T22:52:13.811Z,7.93
2019-04-10T22:54:42.309Z,6.75
2019-04-10T22:57:12.523Z,7.63
2019-04-10T22:59:44.875Z,7.45
2019-04-10T23:04:49.846Z,6.67
2019-04-10T23:07:18.411Z,8.23
2019-04-10T23:09:46.872Z,7.80
2019-04-10T23:12:16.330Z,7.20
2019-04-10T23:14:46.952Z,7.05
2019-04-10T23:17:16.785Z,7.62
2019-04-10T23:19:45.304Z,6.85
2019-04-10T23:22:13.693Z,6.60
2019-04-10T23:24:42.094Z,5.90
2019-04-10T23:27:11.476Z,5.90
2019-04-10T23:29:40.227Z,6.42
2019-04-10T23:32:08.670Z,6.03
2019-04-10T23:34:37.062Z,5.92
2019-04-10T23:37:06.679Z,6.37
2019-04-10T23:39:36.499Z,5.85
2019-04-10T23:42:07.461Z,5.65
2019-04-10T23:44:38.771Z,5.50
2019-04-10T23:47:07.559Z,6.13
2019-04-10T23:49:37.378Z,5.90
2019-04-10T23:52:05.891Z,5.97
2019-04-10T23:54:35.258Z,5.72
2019-04-10T23:57:03.860Z,3.90
2019-04-10T23:59:32.964Z,4.60
